createdAt,value
2023-02-28T00:01:36.670Z,6.63
2023-02-28T00:04:03.069Z,6.64
2023-02-28T00:06:29.442Z,6.66
2023-02-28T00:08:55.777Z,6.69
2023-02-28T00:11:22.109Z,6.69
2023-02-28T00:13:48.543Z,6.67
2023-02-28T00:16:14.915Z,6.62
2023-02-28T00:18:41.241Z,6.61
2023-02-28T00:21:07.602Z,6.61
2023-02-28T00:23:33.987Z,6.54
2023-02-28T00:26:00.301Z,6.60
2023-02-28T00:28:27.022Z,6.67
2023-02-28T00:30:53.564Z,6.62
2023-02-28T00:33:19.751Z,6.61
2023-02-28T00:35:46.104Z,6.63
2023-02-28T00:38:12.477Z,6.58
2023-02-28T00:40:38.816Z,6.57
2023-02-28T00:43:05.145Z,6.59
2023-02-28T00:45:31.523Z,6.61
2023-02-28T00:47:57.858Z,6.55
2023-02-28T00:50:24.220Z,6.49
2023-02-28T00:52:50.695Z,6.50
2023-02-28T00:55:17.058Z,6.55
2023-02-28T00:57:43.404Z,6.60
2023-02-28T01:00:09.728Z,6.53
2023-02-28T01:02:36.071Z,6.56
2023-02-28T01:05:02.400Z,6.56
2023-02-28T01:07:28.776Z,6.51
2023-02-28T01:09:55.139Z,6.53
2023-02-28T01:12:21.509Z,6.35
2023-02-28T01:14:47.832Z,6.22
2023-02-28T01:17:14.178Z,6.25
2023-02-28T01:19:40.555Z,6.19
2023-02-28T01:22:06.885Z,6.22
2023-02-28T01:24:34.439Z,6.19
2023-02-28T01:26:59.672Z,6.11
2023-02-28T01:29:26.030Z,6.16
2023-02-28T01:31:52.499Z,6.23
2023-02-28T01:34:18.790Z,6.18
2023-02-28T01:36:45.126Z,6.06
2023-02-28T01:39:11.461Z,5.96
2023-02-28T01:41:37.820Z,6.08
2023-02-28T01:44:04.215Z,6.13
2023-02-28T01:46:30.602Z,6.06
2023-02-28T01:48:56.892Z,6.14
2023-02-28T01:51:23.288Z,6.17
2023-02-28T01:53:49.658Z,6.06
2023-02-28T01:56:16.044Z,6.07
2023-02-28T01:58:42.365Z,6.08
2023-02-28T02:01:08.761Z,6.11
2023-02-28T02:03:35.069Z,6.10
2023-02-28T02:06:01.463Z,6.07
2023-02-28T02:08:27.916Z,6.08
2023-02-28T02:10:54.301Z,6.04
2023-02-28T02:13:20.632Z,5.99
2023-02-28T02:15:47.033Z,5.97
2023-02-28T02:18:13.371Z,5.94
2023-02-28T02:20:39.694Z,5.98
2023-02-28T02:23:06.042Z,6.04
2023-02-28T02:25:32.424Z,5.96
2023-02-28T02:27:58.740Z,5.98
2023-02-28T02:30:25.140Z,6.01
2023-02-28T02:32:51.485Z,6.07
2023-02-28T02:35:17.869Z,6.07
2023-02-28T02:37:44.258Z,6.11
2023-02-28T02:40:10.595Z,6.12
2023-02-28T02:42:36.931Z,6.09
2023-02-28T02:45:03.320Z,6.06
2023-02-28T02:47:29.710Z,6.05
2023-02-28T02:49:56.053Z,6.02
2023-02-28T02:52:22.408Z,6.00
2023-02-28T02:54:48.770Z,6.07
2023-02-28T02:57:15.101Z,6.16
2023-02-28T02:59:41.447Z,6.21
2023-02-28T03:02:07.800Z,6.21
2023-02-28T03:04:34.185Z,6.17
2023-02-28T03:07:00.557Z,6.06
2023-02-28T03:09:26.924Z,6.13
2023-02-28T03:11:53.299Z,6.10
2023-02-28T03:14:19.618Z,6.05
2023-02-28T03:16:45.983Z,6.00
2023-02-28T03:19:12.399Z,5.91
2023-02-28T03:21:38.752Z,5.86
2023-02-28T03:24:05.131Z,5.91
2023-02-28T03:26:31.476Z,5.95
2023-02-28T03:28:57.854Z,6.02
2023-02-28T03:31:24.185Z,6.00
2023-02-28T03:33:50.618Z,5.99
2023-02-28T03:36:16.973Z,5.99
2023-02-28T03:38:43.357Z,5.96
2023-02-28T03:41:09.724Z,6.10
2023-02-28T03:43:36.091Z,6.17
2023-02-28T03:46:02.461Z,6.15
2023-02-28T03:48:28.840Z,6.16
2023-02-28T03:50:55.184Z,6.18
2023-02-28T03:53:21.528Z,6.12
2023-02-28T03:55:47.886Z,6.17
2023-02-28T03:58:14.334Z,6.22
2023-02-28T04:00:40.665Z,6.19
2023-02-28T04:03:07.053Z,6.20
2023-02-28T04:05:33.409Z,6.29
2023-02-28T04:07:59.779Z,6.35
2023-02-28T04:10:26.136Z,6.31
2023-02-28T04:12:52.488Z,6.34
2023-02-28T04:15:18.858Z,6.37
2023-02-28T04:17:45.195Z,6.29
2023-02-28T04:20:11.565Z,6.35
2023-02-28T04:22:37.897Z,6.41
2023-02-28T04:25:04.226Z,6.36
2023-02-28T04:27:32.665Z,6.26
2023-02-28T04:29:56.951Z,6.15
2023-02-28T04:32:23.353Z,6.11
2023-02-28T04:34:49.633Z,6.14
2023-02-28T04:37:15.995Z,6.10
2023-02-28T04:39:42.311Z,6.06
2023-02-28T04:42:08.673Z,6.06
2023-02-28T04:44:34.985Z,6.05
2023-02-28T04:47:01.410Z,6.08
2023-02-28T04:49:27.768Z,5.96
2023-02-28T04:51:54.164Z,5.95
2023-02-28T04:54:20.538Z,5.97
2023-02-28T04:56:46.913Z,5.90
2023-02-28T04:59:13.227Z,5.81
2023-02-28T05:01:39.581Z,5.75
2023-02-28T05:04:05.929Z,5.81
2023-02-28T05:06:32.556Z,5.79
2023-02-28T05:08:58.933Z,5.83
2023-02-28T05:11:25.295Z,5.82
2023-02-28T05:13:51.609Z,5.91
2023-02-28T05:16:18.002Z,5.91
2023-02-28T05:18:44.355Z,5.89
2023-02-28T05:21:10.669Z,5.83
2023-02-28T05:23:37.028Z,5.80
2023-02-28T05:26:03.647Z,5.76
2023-02-28T05:28:29.969Z,5.78
2023-02-28T05:30:56.310Z,5.90
2023-02-28T05:33:22.686Z,6.01
2023-02-28T05:35:49.103Z,6.06
2023-02-28T05:38:15.397Z,5.99
2023-02-28T05:40:41.762Z,6.00
2023-02-28T05:43:08.217Z,6.02
2023-02-28T05:45:34.550Z,6.11
2023-02-28T05:48:01.458Z,6.09
2023-02-28T05:50:27.784Z,6.11
2023-02-28T05:52:54.354Z,6.05
2023-02-28T05:55:20.715Z,6.10
2023-02-28T05:57:47.137Z,6.06
2023-02-28T06:00:13.466Z,6.01
2023-02-28T06:02:39.908Z,6.11
2023-02-28T06:05:06.586Z,6.20
2023-02-28T06:07:32.974Z,6.15
2023-02-28T06:09:59.332Z,6.03
2023-02-28T06:12:25.726Z,6.12
2023-02-28T06:14:52.054Z,6.09
2023-02-28T06:17:18.406Z,6.11
2023-02-28T06:19:44.783Z,6.13
2023-02-28T06:22:11.166Z,6.17
2023-02-28T06:24:37.532Z,6.16
2023-02-28T06:27:03.942Z,6.11
2023-02-28T06:29:30.227Z,6.12
2023-02-28T06:31:56.648Z,6.24
2023-02-28T06:34:22.948Z,6.30
2023-02-28T06:36:49.294Z,6.17
2023-02-28T06:39:15.625Z,6.13
2023-02-28T06:41:54.288Z,6.10
2023-02-28T06:44:08.363Z,6.16
2023-02-28T06:46:34.816Z,6.25
2023-02-28T06:49:01.306Z,6.38
2023-02-28T06:51:28.040Z,6.49
2023-02-28T06:53:54.022Z,6.39
2023-02-28T06:56:20.526Z,6.38
2023-02-28T06:58:46.881Z,6.38
2023-02-28T07:01:13.282Z,6.44
2023-02-28T07:03:39.614Z,6.49
2023-02-28T07:06:05.954Z,6.41
2023-02-28T07:08:32.334Z,6.42
2023-02-28T07:10:58.787Z,6.43
2023-02-28T07:13:25.157Z,6.39
2023-02-28T07:15:51.528Z,6.38
2023-02-28T07:18:17.987Z,6.43
2023-02-28T07:20:44.335Z,6.53
2023-02-28T07:23:10.756Z,6.51
2023-02-28T07:25:37.144Z,6.58
2023-02-28T07:28:03.454Z,6.66
2023-02-28T07:30:29.811Z,6.63
2023-02-28T07:32:56.265Z,6.77
2023-02-28T07:35:22.757Z,6.79
2023-02-28T07:37:49.041Z,6.82
2023-02-28T07:40:15.437Z,7.00
2023-02-28T07:42:41.806Z,7.02
2023-02-28T07:45:08.463Z,7.07
2023-02-28T07:47:34.821Z,7.06
2023-02-28T07:50:01.213Z,7.15
2023-02-28T07:52:27.529Z,7.12
2023-02-28T07:54:53.927Z,7.14
2023-02-28T07:57:20.247Z,7.24
2023-02-28T07:59:46.640Z,7.37
2023-02-28T08:02:13.036Z,7.50
2023-02-28T08:04:39.408Z,7.50
2023-02-28T08:07:05.732Z,7.59
2023-02-28T08:09:32.163Z,7.82
2023-02-28T08:11:58.480Z,7.90
2023-02-28T08:14:24.874Z,7.90
2023-02-28T08:16:51.187Z,8.07
2023-02-28T08:19:17.586Z,8.15
2023-02-28T08:21:43.959Z,8.11
2023-02-28T08:24:10.292Z,8.26
2023-02-28T08:26:37.938Z,8.39
2023-02-28T08:29:04.305Z,8.50
2023-02-28T08:31:30.960Z,8.82
2023-02-28T08:33:57.003Z,8.99
2023-02-28T08:36:23.455Z,9.25
2023-02-28T08:38:49.754Z,9.34
2023-02-28T08:41:16.131Z,9.63
2023-02-28T08:43:42.560Z,9.81
2023-02-28T08:46:09.003Z,10.08
2023-02-28T08:48:35.359Z,10.16
2023-02-28T08:51:09.020Z,10.25
2023-02-28T08:53:28.151Z,10.59
2023-02-28T08:55:54.507Z,10.82
2023-02-28T08:58:20.858Z,10.85
2023-02-28T09:00:47.226Z,10.78
2023-02-28T09:03:13.550Z,10.74
2023-02-28T09:05:39.942Z,10.74
2023-02-28T09:08:06.328Z,10.65
2023-02-28T09:10:32.686Z,10.66
2023-02-28T09:12:59.034Z,10.74
2023-02-28T09:15:25.402Z,10.69
2023-02-28T09:17:51.818Z,10.92
2023-02-28T09:20:18.246Z,11.09
2023-02-28T09:22:44.698Z,11.25
2023-02-28T09:25:11.000Z,10.79
2023-02-28T09:27:37.410Z,10.87
2023-02-28T09:30:03.858Z,11.14
2023-02-28T09:32:30.279Z,11.46
2023-02-28T09:34:56.602Z,11.29
2023-02-28T09:37:23.015Z,11.25
2023-02-28T09:39:49.382Z,11.59
2023-02-28T09:42:15.711Z,11.77
2023-02-28T09:44:43.865Z,11.98
2023-02-28T09:47:08.440Z,11.96
2023-02-28T09:49:34.771Z,11.91
2023-02-28T09:52:01.159Z,12.07
2023-02-28T09:54:27.530Z,12.44
2023-02-28T09:56:53.878Z,12.84
2023-02-28T09:59:20.222Z,12.37
2023-02-28T10:01:46.663Z,12.37
2023-02-28T10:04:12.981Z,12.57
2023-02-28T10:06:39.339Z,12.74
2023-02-28T10:09:05.702Z,12.81
2023-02-28T10:11:32.772Z,12.85
2023-02-28T10:13:58.518Z,12.40
2023-02-28T10:16:24.901Z,12.71
2023-02-28T10:18:51.459Z,12.68
2023-02-28T10:21:17.852Z,12.77
2023-02-28T10:23:44.167Z,13.15
2023-02-28T10:26:10.522Z,13.44
2023-02-28T10:28:36.858Z,13.41
2023-02-28T10:31:03.336Z,13.65
2023-02-28T10:33:29.680Z,13.84
2023-02-28T10:35:56.037Z,14.03
2023-02-28T10:38:22.387Z,14.31
2023-02-28T10:40:48.769Z,14.18
2023-02-28T10:43:15.122Z,14.12
2023-02-28T10:45:42.116Z,14.16
2023-02-28T10:48:08.466Z,14.11
2023-02-28T10:50:34.942Z,13.96
2023-02-28T10:53:01.293Z,13.47
2023-02-28T10:55:27.638Z,13.14
2023-02-28T10:57:53.961Z,13.23
2023-02-28T11:00:20.359Z,13.44
2023-02-28T11:02:46.704Z,13.83
2023-02-28T11:05:13.084Z,14.05
2023-02-28T11:07:50.511Z,14.11
2023-02-28T11:10:06.028Z,13.96
2023-02-28T11:12:34.009Z,13.83
2023-02-28T11:14:59.209Z,13.78
2023-02-28T11:17:25.557Z,13.74
2023-02-28T11:19:51.953Z,13.77
2023-02-28T11:22:18.391Z,13.98
2023-02-28T11:24:44.921Z,13.63
2023-02-28T11:27:11.235Z,13.38
2023-02-28T11:29:37.574Z,14.03
2023-02-28T11:32:04.057Z,14.20
2023-02-28T11:34:30.502Z,14.58
2023-02-28T11:36:56.943Z,14.54
2023-02-28T11:39:23.563Z,13.90
2023-02-28T11:41:49.888Z,13.90
2023-02-28T11:44:16.300Z,13.79
2023-02-28T11:46:42.691Z,13.82
2023-02-28T11:49:09.008Z,13.61
2023-02-28T11:51:35.424Z,13.46
2023-02-28T11:54:01.805Z,13.87
2023-02-28T11:56:28.118Z,14.41
2023-02-28T11:58:54.531Z,14.20
2023-02-28T12:01:20.840Z,14.19
2023-02-28T12:03:47.187Z,14.38
2023-02-28T12:06:13.592Z,14.51
2023-02-28T12:08:39.941Z,14.40
2023-02-28T12:11:06.302Z,14.13
2023-02-28T12:13:32.648Z,13.93
2023-02-28T12:15:59.034Z,13.86
2023-02-28T12:18:25.396Z,14.01
2023-02-28T12:20:52.065Z,13.98
2023-02-28T12:23:18.410Z,13.38
2023-02-28T12:25:44.769Z,13.49
2023-02-28T12:28:11.199Z,13.53
2023-02-28T12:30:37.513Z,13.24
2023-02-28T12:33:03.946Z,13.49
2023-02-28T12:35:30.350Z,13.23
2023-02-28T12:37:56.710Z,13.18
2023-02-28T12:40:23.082Z,13.25
2023-02-28T12:42:49.440Z,13.32
2023-02-28T12:45:15.772Z,13.04
2023-02-28T12:47:42.156Z,12.92
2023-02-28T12:50:08.518Z,12.85
2023-02-28T12:52:34.852Z,12.63
2023-02-28T12:55:01.377Z,12.65
2023-02-28T12:57:27.796Z,12.71
2023-02-28T12:59:54.122Z,12.79
2023-02-28T13:02:20.613Z,12.94
2023-02-28T13:04:47.004Z,12.87
2023-02-28T13:07:13.377Z,13.08
2023-02-28T13:09:39.774Z,12.99
2023-02-28T13:12:06.168Z,13.21
2023-02-28T13:14:32.474Z,13.39
2023-02-28T13:16:58.986Z,13.13
2023-02-28T13:19:25.281Z,13.02
2023-02-28T13:21:51.665Z,12.96
2023-02-28T13:24:18.030Z,12.90
2023-02-28T13:26:44.792Z,12.75
2023-02-28T13:29:11.058Z,12.96
2023-02-28T13:31:37.473Z,12.83
2023-02-28T13:34:03.853Z,12.78
2023-02-28T13:36:30.275Z,12.78
2023-02-28T13:38:56.787Z,12.43
2023-02-28T13:41:23.120Z,12.38
2023-02-28T13:43:49.563Z,12.46
2023-02-28T13:46:16.033Z,12.56
2023-02-28T13:48:42.301Z,12.45
2023-02-28T13:51:08.690Z,12.46
2023-02-28T13:53:35.125Z,12.47
2023-02-28T13:56:01.498Z,12.47
2023-02-28T13:58:27.809Z,12.44
2023-02-28T14:00:54.186Z,12.42
2023-02-28T14:03:20.592Z,12.23
2023-02-28T14:05:47.106Z,12.31
2023-02-28T14:08:13.345Z,12.21
2023-02-28T14:10:39.706Z,12.18
2023-02-28T14:13:06.069Z,11.94
2023-02-28T14:15:33.633Z,11.93
2023-02-28T14:17:59.986Z,11.92
2023-02-28T14:20:26.360Z,11.77
2023-02-28T14:22:52.723Z,11.67
2023-02-28T14:25:19.075Z,11.67
2023-02-28T14:27:45.599Z,11.66
2023-02-28T14:30:11.989Z,11.69
2023-02-28T14:32:38.634Z,11.61
2023-02-28T14:35:05.212Z,11.59
2023-02-28T14:37:31.568Z,11.54
2023-02-28T14:39:57.952Z,11.43
2023-02-28T14:42:24.513Z,11.46
2023-02-28T14:44:50.891Z,11.48
2023-02-28T14:47:17.210Z,11.53
2023-02-28T14:49:43.621Z,11.46
2023-02-28T14:52:09.973Z,11.37
2023-02-28T14:54:36.319Z,11.37
2023-02-28T14:57:02.700Z,11.33
2023-02-28T14:59:29.038Z,11.28
2023-02-28T15:01:55.400Z,11.08
2023-02-28T15:04:21.876Z,11.07
2023-02-28T15:06:48.156Z,11.16
2023-02-28T15:09:14.881Z,11.11
2023-02-28T15:11:41.275Z,10.95
2023-02-28T15:14:07.605Z,10.88
2023-02-28T15:16:34.005Z,10.71
2023-02-28T15:19:00.353Z,10.64
2023-02-28T15:21:26.675Z,10.51
2023-02-28T15:23:53.061Z,10.46
2023-02-28T15:26:19.423Z,10.45
2023-02-28T15:28:45.768Z,10.37
2023-02-28T15:31:12.143Z,10.32
2023-02-28T15:33:38.533Z,10.25
2023-02-28T15:36:04.987Z,10.22
2023-02-28T15:38:31.637Z,10.19
2023-02-28T15:40:58.061Z,10.19
2023-02-28T15:43:24.412Z,10.12
2023-02-28T15:45:53.023Z,10.00
2023-02-28T15:48:19.355Z,9.98
2023-02-28T15:50:46.563Z,10.03
2023-02-28T15:53:12.953Z,10.01
2023-02-28T15:55:39.281Z,9.93
2023-02-28T15:58:05.750Z,9.91
2023-02-28T16:00:32.146Z,9.81
2023-02-28T16:02:58.742Z,9.67
2023-02-28T16:05:24.964Z,9.60
2023-02-28T16:07:51.392Z,9.60
2023-02-28T16:10:17.725Z,9.57
2023-02-28T16:12:44.365Z,9.48
2023-02-28T16:15:12.233Z,9.47
2023-02-28T16:17:38.560Z,9.41
2023-02-28T16:20:04.971Z,9.38
2023-02-28T16:22:31.312Z,9.33
2023-02-28T16:24:57.671Z,9.26
2023-02-28T16:27:24.091Z,9.27
2023-02-28T16:29:50.486Z,9.21
2023-02-28T16:32:16.887Z,9.17
2023-02-28T16:34:43.296Z,9.11
2023-02-28T16:37:09.993Z,9.08
2023-02-28T16:39:36.387Z,9.05
2023-02-28T16:42:02.734Z,9.02
2023-02-28T16:44:29.279Z,9.02
2023-02-28T16:46:55.634Z,9.05
2023-02-28T16:49:22.088Z,8.97
2023-02-28T16:51:48.405Z,8.92
2023-02-28T16:54:14.749Z,8.81
2023-02-28T16:56:41.132Z,8.76
2023-02-28T16:59:07.469Z,8.76
2023-02-28T17:01:34.496Z,8.74
2023-02-28T17:04:00.374Z,8.70
2023-02-28T17:06:28.227Z,8.65
2023-02-28T17:08:54.029Z,8.64
2023-02-28T17:11:20.853Z,8.61
2023-02-28T17:13:47.211Z,8.54
2023-02-28T17:16:13.598Z,8.50
2023-02-28T17:18:39.991Z,8.47
2023-02-28T17:21:07.062Z,8.50
2023-02-28T17:23:33.447Z,8.36
2023-02-28T17:25:59.807Z,8.36
2023-02-28T17:28:26.192Z,8.40
2023-02-28T17:30:52.578Z,8.33
2023-02-28T17:33:19.093Z,8.27
2023-02-28T17:35:45.586Z,8.22
2023-02-28T17:38:12.030Z,8.19
2023-02-28T17:40:38.345Z,8.15
2023-02-28T17:43:04.704Z,8.03
2023-02-28T17:45:32.014Z,7.96
2023-02-28T17:47:59.571Z,8.02
2023-02-28T17:50:25.894Z,8.04
2023-02-28T17:52:52.262Z,8.03
2023-02-28T17:55:18.574Z,8.01
2023-02-28T17:57:45.117Z,7.94
2023-02-28T18:00:11.470Z,7.89
2023-02-28T18:02:37.863Z,7.86
2023-02-28T18:05:04.236Z,7.84
2023-02-28T18:07:30.737Z,7.85
2023-02-28T18:09:57.090Z,7.90
2023-02-28T18:12:23.485Z,7.85
2023-02-28T18:14:49.873Z,7.88
2023-02-28T18:17:16.435Z,7.88
2023-02-28T18:19:42.759Z,7.88
2023-02-28T18:22:09.154Z,7.82
2023-02-28T18:24:35.535Z,7.85
2023-02-28T18:27:01.852Z,7.89
2023-02-28T18:29:28.329Z,7.90
2023-02-28T18:31:55.100Z,7.91
2023-02-28T18:34:21.691Z,7.87
2023-02-28T18:36:48.070Z,7.91
2023-02-28T18:39:14.741Z,7.87
2023-02-28T18:41:41.109Z,7.88
2023-02-28T18:44:17.732Z,7.85
2023-02-28T18:46:34.188Z,7.87
2023-02-28T18:49:00.449Z,7.88
2023-02-28T18:51:26.787Z,7.88
2023-02-28T18:53:53.195Z,7.88
2023-02-28T18:56:19.870Z,7.81
2023-02-28T18:58:46.192Z,7.80
2023-02-28T19:01:12.724Z,7.83
2023-02-28T19:03:39.076Z,7.78
2023-02-28T19:06:05.427Z,7.76
2023-02-28T19:08:31.885Z,7.76
2023-02-28T19:10:58.183Z,7.79
2023-02-28T19:13:24.549Z,7.77
2023-02-28T19:15:53.758Z,7.80
2023-02-28T19:18:17.330Z,7.81
2023-02-28T19:20:43.640Z,7.78
2023-02-28T19:23:09.956Z,7.79
2023-02-28T19:25:36.302Z,7.81
2023-02-28T19:28:02.697Z,7.78
2023-02-28T19:30:29.036Z,7.76
2023-02-28T19:32:55.467Z,7.75
2023-02-28T19:35:21.820Z,7.72
2023-02-28T19:37:48.223Z,7.72
2023-02-28T19:40:14.925Z,7.70
2023-02-28T19:42:41.283Z,7.69
2023-02-28T19:45:07.952Z,7.66
2023-02-28T19:47:34.273Z,7.64
2023-02-28T19:50:00.695Z,7.66
2023-02-28T19:52:26.992Z,7.69
2023-02-28T19:54:53.488Z,7.67
2023-02-28T19:57:20.013Z,7.66
2023-02-28T19:59:46.367Z,7.65
2023-02-28T20:02:12.684Z,7.69
2023-02-28T20:04:39.201Z,7.68
2023-02-28T20:07:05.441Z,7.63
2023-02-28T20:09:31.968Z,7.63
2023-02-28T20:11:58.386Z,7.59
2023-02-28T20:14:24.723Z,7.60
2023-02-28T20:16:51.115Z,7.61
2023-02-28T20:19:17.474Z,7.59
2023-02-28T20:21:43.861Z,7.59
2023-02-28T20:24:10.216Z,7.59
2023-02-28T20:26:36.593Z,7.61
2023-02-28T20:29:02.927Z,7.56
2023-02-28T20:31:29.359Z,7.58
2023-02-28T20:33:55.703Z,7.57
2023-02-28T20:36:22.082Z,7.59
2023-02-28T20:38:48.440Z,7.57
2023-02-28T20:41:14.827Z,7.62
2023-02-28T20:43:41.196Z,7.59
2023-02-28T20:46:07.566Z,7.56
2023-02-28T20:48:33.883Z,7.59
2023-02-28T20:51:00.222Z,7.59
2023-02-28T20:53:26.575Z,7.60
2023-02-28T20:55:52.904Z,7.59
2023-02-28T20:58:19.288Z,7.61
2023-02-28T21:00:45.947Z,7.59
2023-02-28T21:03:12.291Z,7.59
2023-02-28T21:05:38.650Z,7.61
2023-02-28T21:08:05.064Z,7.56
2023-02-28T21:10:31.384Z,7.59
2023-02-28T21:12:57.780Z,7.64
2023-02-28T21:15:24.156Z,7.63
2023-02-28T21:17:50.511Z,7.61
2023-02-28T21:20:16.820Z,7.64
2023-02-28T21:22:43.192Z,7.67
2023-02-28T21:25:09.571Z,7.68
2023-02-28T21:27:35.953Z,7.67
2023-02-28T21:30:04.053Z,7.71
2023-02-28T21:32:28.675Z,7.69
2023-02-28T21:34:54.998Z,7.66
2023-02-28T21:37:21.392Z,7.66
2023-02-28T21:39:47.764Z,7.63
2023-02-28T21:42:14.113Z,7.64
2023-02-28T21:44:40.450Z,7.56
2023-02-28T21:47:07.956Z,7.54
2023-02-28T21:49:34.306Z,7.55
2023-02-28T21:52:00.727Z,7.50
2023-02-28T21:54:27.072Z,7.43
2023-02-28T21:56:53.532Z,7.39
2023-02-28T21:59:19.854Z,7.37
2023-02-28T22:01:46.325Z,7.41
2023-02-28T22:04:14.786Z,7.37
2023-02-28T22:06:41.173Z,7.42
2023-02-28T22:09:07.979Z,7.42
2023-02-28T22:11:34.305Z,7.34
2023-02-28T22:14:00.674Z,7.35
2023-02-28T22:16:28.161Z,7.34
2023-02-28T22:18:53.438Z,7.27
2023-02-28T22:21:19.831Z,7.30
2023-02-28T22:23:46.161Z,7.29
2023-02-28T22:26:12.507Z,7.24
2023-02-28T22:28:38.877Z,7.30
2023-02-28T22:31:05.231Z,7.28
2023-02-28T22:33:31.708Z,7.27
2023-02-28T22:35:58.041Z,7.21
2023-02-28T22:38:24.405Z,7.23
2023-02-28T22:40:50.822Z,7.26
2023-02-28T22:43:19.661Z,7.29
2023-02-28T22:45:46.040Z,7.28
2023-02-28T22:48:12.840Z,7.27
2023-02-28T22:50:39.178Z,7.27
2023-02-28T22:53:05.643Z,7.30
2023-02-28T22:55:32.066Z,7.27
2023-02-28T22:57:58.409Z,7.22
2023-02-28T23:00:24.786Z,7.16
2023-02-28T23:02:51.140Z,7.19
2023-02-28T23:05:17.490Z,7.14
2023-02-28T23:07:43.865Z,7.15
2023-02-28T23:10:10.200Z,7.14
2023-02-28T23:12:36.593Z,7.15
2023-02-28T23:15:02.943Z,7.09
2023-02-28T23:17:29.252Z,7.08
2023-02-28T23:19:55.673Z,7.07
2023-02-28T23:22:22.004Z,7.02
2023-02-28T23:24:48.342Z,6.92
2023-02-28T23:27:14.680Z,6.94
2023-02-28T23:29:42.043Z,6.93
2023-02-28T23:32:07.456Z,6.90
2023-02-28T23:34:33.731Z,6.89
2023-02-28T23:37:00.124Z,6.88
2023-02-28T23:39:26.474Z,6.89
2023-02-28T23:41:52.833Z,6.83
2023-02-28T23:44:19.208Z,6.88
2023-02-28T23:46:45.642Z,6.90
2023-02-28T23:49:11.968Z,6.89
2023-02-28T23:51:38.338Z,6.93
2023-02-28T23:54:04.712Z,6.90
2023-02-28T23:56:31.385Z,6.90
2023-02-28T23:58:57.461Z,6.86
